ENT5GN LGRP-EPKT
Flight info
| Callsign | ENT5GN |
|---|---|
| Flight time | 2h 28m |
| Altitude | 38000 |
| Route | VANES UM601 ADESO UN133 PEREN UL863 EVIVI L863 OKANA DCT ESIRI DCT PARAK DCT LITKU DCT REDSI/N0442F390 DCT MEBAN |
| Aircraft | B738/M-DFGHIJ1LORVWXY/EB1 |
Departure
| Time | 2026-05-04 16:51 |
|---|---|
| Airport | Rhodes International Airport "Diagoras" (LGRP) |
Arrival
| Time | 2026-05-04 19:19 |
|---|---|
| Airport | Katowice Wojciech Korfanty International Airport (EPKT) |
| Time | Latitude | Longitude | Altitude | Speed | Heading |
|---|---|---|---|---|---|
| 2026-05-04 16:32 | 36.40355 | 28.09089 | 27 ft | 0 kts | 160° |
| 2026-05-04 16:43 | 36.40380 | 28.09078 | 27 ft | 3 kts | 159° |
| 2026-05-04 16:43 | 36.40397 | 28.09069 | 27 ft | 3 kts | 142° |
| 2026-05-04 16:44 | 36.40411 | 28.09042 | 27 ft | 2 kts | 70° |
| 2026-05-04 16:45 | 36.40413 | 28.09048 | 27 ft | 1 kts | 70° |
| 2026-05-04 16:47 | 36.40468 | 28.09234 | 27 ft | 25 kts | 70° |
| 2026-05-04 16:48 | 36.40692 | 28.09770 | 27 ft | 23 kts | 69° |
| 2026-05-04 16:48 | 36.40746 | 28.09954 | 27 ft | 22 kts | 69° |
| 2026-05-04 16:49 | 36.40860 | 28.10346 | 27 ft | 23 kts | 70° |
| 2026-05-04 16:49 | 36.41023 | 28.10278 | 27 ft | 19 kts | 264° |
| 2026-05-04 16:50 | 36.41005 | 28.10208 | 27 ft | 28 kts | 250° |
| 2026-05-04 16:50 | 36.40558 | 28.08641 | 45 ft | 154 kts | 253° |
| 2026-05-04 16:51 | 36.39713 | 28.06021 | 1638 ft | 164 kts | 256° |
| 2026-05-04 16:51 | 36.39309 | 28.04588 | 2100 ft | 189 kts | 257° |
| 2026-05-04 16:51 | 36.39153 | 28.01206 | 2823 ft | 209 kts | 302° |
| 2026-05-04 16:52 | 36.40856 | 27.98213 | 4149 ft | 222 kts | 307° |
| 2026-05-04 16:52 | 36.41802 | 27.96597 | 4695 ft | 237 kts | 308° |
| 2026-05-04 16:53 | 36.43767 | 27.93224 | 6419 ft | 243 kts | 308° |
| 2026-05-04 16:53 | 36.46793 | 27.88004 | 8851 ft | 253 kts | 307° |
| 2026-05-04 16:54 | 36.47825 | 27.86218 | 9638 ft | 258 kts | 307° |
| 2026-05-04 16:55 | 36.52479 | 27.78145 | 11364 ft | 319 kts | 307° |
| 2026-05-04 16:55 | 36.55116 | 27.73552 | 12693 ft | 331 kts | 307° |
| 2026-05-04 16:56 | 36.57806 | 27.68858 | 14082 ft | 340 kts | 307° |
| 2026-05-04 16:56 | 36.61958 | 27.61599 | 16110 ft | 348 kts | 307° |
| 2026-05-04 16:57 | 36.63376 | 27.59118 | 16689 ft | 354 kts | 307° |
| 2026-05-04 16:57 | 36.66253 | 27.54080 | 17995 ft | 360 kts | 307° |
| 2026-05-04 16:58 | 36.70667 | 27.46333 | 19437 ft | 377 kts | 308° |
| 2026-05-04 16:58 | 36.72186 | 27.43663 | 19970 ft | 380 kts | 308° |
| 2026-05-04 16:59 | 36.75286 | 27.38210 | 20895 ft | 391 kts | 308° |
| 2026-05-04 17:00 | 36.81174 | 27.27829 | 22512 ft | 409 kts | 309° |
| 2026-05-04 17:00 | 36.86178 | 27.18973 | 23777 ft | 422 kts | 308° |
| 2026-05-04 17:01 | 36.89570 | 27.12958 | 24673 ft | 424 kts | 308° |
| 2026-05-04 17:01 | 36.92974 | 27.06910 | 25489 ft | 427 kts | 308° |
| 2026-05-04 17:02 | 36.96406 | 27.00800 | 26249 ft | 431 kts | 308° |
| 2026-05-04 17:02 | 36.99866 | 26.94634 | 27073 ft | 434 kts | 307° |
| 2026-05-04 17:03 | 37.01580 | 26.91576 | 27502 ft | 434 kts | 307° |
| 2026-05-04 17:03 | 37.03317 | 26.88471 | 27820 ft | 437 kts | 307° |
| 2026-05-04 17:03 | 37.06813 | 26.82212 | 28575 ft | 439 kts | 306° |
| 2026-05-04 17:04 | 37.10338 | 26.75894 | 29191 ft | 443 kts | 306° |
| 2026-05-04 17:04 | 37.13841 | 26.69601 | 30097 ft | 440 kts | 306° |
| 2026-05-04 17:05 | 37.17310 | 26.63359 | 31025 ft | 431 kts | 305° |
| 2026-05-04 17:05 | 37.20695 | 26.57257 | 31940 ft | 424 kts | 305° |
| 2026-05-04 17:06 | 37.24069 | 26.51164 | 32511 ft | 424 kts | 305° |
| 2026-05-04 17:06 | 37.25742 | 26.48140 | 32871 ft | 423 kts | 305° |
| 2026-05-04 17:07 | 37.29103 | 26.42054 | 33418 ft | 423 kts | 305° |
| 2026-05-04 17:07 | 37.30211 | 26.40045 | 33670 ft | 421 kts | 305° |
| 2026-05-04 17:07 | 37.32419 | 26.36038 | 34090 ft | 420 kts | 305° |
| 2026-05-04 17:07 | 37.34082 | 26.33018 | 34273 ft | 421 kts | 305° |
| 2026-05-04 17:08 | 37.35748 | 26.29989 | 34524 ft | 419 kts | 305° |
| 2026-05-04 17:08 | 37.39047 | 26.23982 | 35128 ft | 415 kts | 305° |
| 2026-05-04 17:08 | 37.40675 | 26.21013 | 35496 ft | 410 kts | 305° |
| 2026-05-04 17:09 | 37.42292 | 26.18064 | 35722 ft | 410 kts | 305° |
| 2026-05-04 17:09 | 37.43910 | 26.15108 | 35941 ft | 410 kts | 305° |
| 2026-05-04 17:09 | 37.45528 | 26.12150 | 36148 ft | 409 kts | 305° |
| 2026-05-04 17:10 | 37.48745 | 26.06260 | 36632 ft | 407 kts | 306° |
| 2026-05-04 17:10 | 37.53548 | 25.97449 | 37262 ft | 405 kts | 305° |
| 2026-05-04 17:11 | 37.55144 | 25.94517 | 37434 ft | 405 kts | 305° |
| 2026-05-04 17:11 | 37.56752 | 25.91598 | 37582 ft | 405 kts | 309° |
| 2026-05-04 17:11 | 37.60740 | 25.86712 | 37999 ft | 402 kts | 323° |
| 2026-05-04 17:12 | 37.63091 | 25.84778 | 38065 ft | 404 kts | 332° |
| 2026-05-04 17:13 | 37.75885 | 25.76891 | 38092 ft | 412 kts | 333° |
| 2026-05-04 17:14 | 37.86211 | 25.70473 | 38089 ft | 411 kts | 333° |
| 2026-05-04 17:15 | 37.93886 | 25.65668 | 38097 ft | 411 kts | 333° |
| 2026-05-04 17:16 | 38.04142 | 25.59230 | 38082 ft | 410 kts | 333° |
| 2026-05-04 17:17 | 38.14429 | 25.52751 | 38085 ft | 414 kts | 333° |
| 2026-05-04 17:18 | 38.24692 | 25.46269 | 38093 ft | 413 kts | 333° |
| 2026-05-04 17:19 | 38.34930 | 25.39781 | 38093 ft | 413 kts | 333° |
| 2026-05-04 17:20 | 38.45240 | 25.33227 | 38083 ft | 413 kts | 333° |
| 2026-05-04 17:20 | 38.52969 | 25.28299 | 38092 ft | 415 kts | 333° |
| 2026-05-04 17:21 | 38.63232 | 25.21739 | 38098 ft | 413 kts | 333° |
| 2026-05-04 17:22 | 38.68401 | 25.18426 | 38102 ft | 417 kts | 333° |
| 2026-05-04 17:23 | 38.78788 | 25.11753 | 38093 ft | 417 kts | 333° |
| 2026-05-04 17:24 | 38.86563 | 25.06743 | 38074 ft | 416 kts | 333° |
| 2026-05-04 17:25 | 38.96906 | 25.00060 | 38090 ft | 420 kts | 333° |
| 2026-05-04 17:26 | 39.07361 | 24.93282 | 38089 ft | 422 kts | 333° |
| 2026-05-04 17:27 | 39.20614 | 24.84980 | 38102 ft | 428 kts | 334° |
| 2026-05-04 17:28 | 39.31431 | 24.78275 | 38093 ft | 436 kts | 334° |
| 2026-05-04 17:29 | 39.47599 | 24.68182 | 38091 ft | 425 kts | 334° |
| 2026-05-04 17:31 | 39.60870 | 24.59864 | 38075 ft | 423 kts | 334° |
| 2026-05-04 17:32 | 39.74135 | 24.51513 | 38080 ft | 426 kts | 334° |
| 2026-05-04 17:33 | 39.84859 | 24.44735 | 38074 ft | 429 kts | 334° |
| 2026-05-04 17:34 | 39.95613 | 24.37914 | 38067 ft | 432 kts | 334° |
| 2026-05-04 17:35 | 40.09128 | 24.29308 | 38063 ft | 431 kts | 334° |
| 2026-05-04 17:36 | 40.14521 | 24.25863 | 38060 ft | 430 kts | 334° |
| 2026-05-04 17:36 | 40.19864 | 24.22443 | 38058 ft | 429 kts | 334° |
| 2026-05-04 17:37 | 40.25239 | 24.18998 | 38051 ft | 428 kts | 334° |
| 2026-05-04 17:37 | 40.30580 | 24.15568 | 38062 ft | 427 kts | 334° |
| 2026-05-04 17:38 | 40.35903 | 24.12143 | 38050 ft | 426 kts | 334° |
| 2026-05-04 17:38 | 40.41197 | 24.08731 | 38050 ft | 425 kts | 334° |
| 2026-05-04 17:38 | 40.43854 | 24.07017 | 37842 ft | 425 kts | 334° |
| 2026-05-04 17:39 | 40.49137 | 24.03602 | 37995 ft | 421 kts | 334° |
| 2026-05-04 17:39 | 40.54394 | 24.00199 | 38055 ft | 420 kts | 334° |
| 2026-05-04 17:40 | 40.59633 | 23.96802 | 38063 ft | 420 kts | 334° |
| 2026-05-04 17:40 | 40.64866 | 23.93487 | 38053 ft | 420 kts | 335° |
| 2026-05-04 17:41 | 40.70159 | 23.90181 | 38059 ft | 421 kts | 335° |
| 2026-05-04 17:41 | 40.75472 | 23.86850 | 38054 ft | 423 kts | 335° |
| 2026-05-04 17:42 | 40.80793 | 23.83498 | 38054 ft | 424 kts | 334° |
| 2026-05-04 17:42 | 40.86121 | 23.80133 | 38055 ft | 425 kts | 335° |
| 2026-05-04 17:43 | 40.91464 | 23.76752 | 38055 ft | 426 kts | 334° |
| 2026-05-04 17:43 | 40.96791 | 23.73374 | 38060 ft | 427 kts | 334° |
| 2026-05-04 17:44 | 41.02155 | 23.69968 | 38056 ft | 427 kts | 334° |
| 2026-05-04 17:44 | 41.07516 | 23.66557 | 38056 ft | 427 kts | 334° |
| 2026-05-04 17:45 | 41.12863 | 23.63148 | 38059 ft | 427 kts | 334° |
| 2026-05-04 17:45 | 41.18212 | 23.59732 | 38071 ft | 426 kts | 334° |
| 2026-05-04 17:46 | 41.23555 | 23.56315 | 38066 ft | 426 kts | 334° |
| 2026-05-04 17:46 | 41.27989 | 23.53470 | 38075 ft | 426 kts | 334° |
| 2026-05-04 17:47 | 41.33346 | 23.50024 | 38296 ft | 427 kts | 334° |
| 2026-05-04 17:47 | 41.36008 | 23.48310 | 38601 ft | 424 kts | 334° |
| 2026-05-04 17:47 | 41.38655 | 23.46605 | 38851 ft | 422 kts | 334° |
| 2026-05-04 17:48 | 41.41295 | 23.44901 | 38956 ft | 422 kts | 334° |
| 2026-05-04 17:48 | 41.43940 | 23.43184 | 39028 ft | 423 kts | 334° |
| 2026-05-04 17:48 | 41.49235 | 23.39734 | 39253 ft | 423 kts | 334° |
| 2026-05-04 17:49 | 41.51876 | 23.38009 | 39395 ft | 422 kts | 334° |
| 2026-05-04 17:49 | 41.54523 | 23.36279 | 39449 ft | 424 kts | 334° |
| 2026-05-04 17:49 | 41.59836 | 23.32805 | 39412 ft | 426 kts | 334° |
| 2026-05-04 17:50 | 41.62511 | 23.31054 | 39169 ft | 428 kts | 334° |
| 2026-05-04 17:50 | 41.65160 | 23.29317 | 39122 ft | 422 kts | 334° |
| 2026-05-04 17:50 | 41.70422 | 23.25864 | 39106 ft | 420 kts | 334° |
| 2026-05-04 17:51 | 41.75686 | 23.22404 | 39100 ft | 422 kts | 334° |
| 2026-05-04 17:51 | 41.80939 | 23.18944 | 39097 ft | 424 kts | 334° |
| 2026-05-04 17:52 | 41.86236 | 23.15449 | 39106 ft | 425 kts | 334° |
| 2026-05-04 17:52 | 41.91558 | 23.11930 | 39101 ft | 427 kts | 334° |
| 2026-05-04 17:53 | 41.96884 | 23.08403 | 39105 ft | 427 kts | 334° |
| 2026-05-04 17:53 | 42.02219 | 23.04862 | 39099 ft | 427 kts | 334° |
| 2026-05-04 17:54 | 42.07558 | 23.01312 | 39104 ft | 427 kts | 334° |
| 2026-05-04 17:54 | 42.12872 | 22.97773 | 39103 ft | 426 kts | 334° |
| 2026-05-04 17:55 | 42.18178 | 22.94231 | 39105 ft | 424 kts | 334° |
| 2026-05-04 17:55 | 42.23475 | 22.90689 | 38881 ft | 427 kts | 334° |
| 2026-05-04 17:56 | 42.26142 | 22.88904 | 38620 ft | 426 kts | 334° |
| 2026-05-04 17:56 | 42.28783 | 22.87134 | 38337 ft | 423 kts | 334° |
| 2026-05-04 17:56 | 42.31379 | 22.85393 | 38146 ft | 423 kts | 334° |
| 2026-05-04 17:56 | 42.34060 | 22.83594 | 38109 ft | 425 kts | 334° |
| 2026-05-04 17:57 | 42.39370 | 22.80024 | 38108 ft | 427 kts | 334° |
| 2026-05-04 17:57 | 42.44646 | 22.76470 | 38107 ft | 425 kts | 334° |
| 2026-05-04 17:58 | 42.49928 | 22.72905 | 38100 ft | 423 kts | 334° |
| 2026-05-04 17:58 | 42.55191 | 22.69346 | 38098 ft | 422 kts | 334° |
| 2026-05-04 17:59 | 42.60438 | 22.65792 | 38109 ft | 421 kts | 334° |
| 2026-05-04 18:00 | 42.68292 | 22.60459 | 38111 ft | 421 kts | 334° |
| 2026-05-04 18:00 | 42.73530 | 22.56893 | 38109 ft | 421 kts | 334° |
| 2026-05-04 18:01 | 42.78741 | 22.53338 | 38112 ft | 422 kts | 334° |
| 2026-05-04 18:01 | 42.84002 | 22.49744 | 38103 ft | 423 kts | 334° |
| 2026-05-04 18:02 | 42.91919 | 22.44359 | 38112 ft | 424 kts | 334° |
| 2026-05-04 18:02 | 42.97218 | 22.40758 | 38105 ft | 426 kts | 334° |
| 2026-05-04 18:03 | 43.02542 | 22.37131 | 38102 ft | 427 kts | 334° |
| 2026-05-04 18:03 | 43.07858 | 22.33500 | 38093 ft | 428 kts | 334° |
| 2026-05-04 18:04 | 43.13159 | 22.29871 | 38094 ft | 428 kts | 334° |
| 2026-05-04 18:05 | 43.21156 | 22.24382 | 38085 ft | 428 kts | 334° |
| 2026-05-04 18:05 | 43.26475 | 22.20723 | 38081 ft | 427 kts | 334° |
| 2026-05-04 18:06 | 43.34447 | 22.15225 | 38070 ft | 426 kts | 334° |
| 2026-05-04 18:06 | 43.39743 | 22.11564 | 38079 ft | 425 kts | 334° |
| 2026-05-04 18:07 | 43.45024 | 22.07906 | 38076 ft | 424 kts | 334° |
| 2026-05-04 18:07 | 43.50265 | 22.04268 | 38079 ft | 424 kts | 334° |
| 2026-05-04 18:08 | 43.55534 | 22.00604 | 38080 ft | 423 kts | 334° |
| 2026-05-04 18:08 | 43.60792 | 21.96941 | 38081 ft | 423 kts | 334° |
| 2026-05-04 18:09 | 43.71311 | 21.89590 | 38085 ft | 423 kts | 334° |
| 2026-05-04 18:10 | 43.76568 | 21.85905 | 38093 ft | 423 kts | 334° |
| 2026-05-04 18:10 | 43.81827 | 21.82212 | 38078 ft | 424 kts | 334° |
| 2026-05-04 18:11 | 43.87061 | 21.78528 | 38096 ft | 424 kts | 334° |
| 2026-05-04 18:11 | 43.92321 | 21.74819 | 38098 ft | 425 kts | 333° |
| 2026-05-04 18:12 | 43.97599 | 21.71090 | 38096 ft | 425 kts | 333° |
| 2026-05-04 18:12 | 44.02870 | 21.67358 | 38095 ft | 425 kts | 333° |
| 2026-05-04 18:13 | 44.08143 | 21.63618 | 38096 ft | 426 kts | 333° |
| 2026-05-04 18:14 | 44.16059 | 21.57988 | 38097 ft | 425 kts | 333° |
| 2026-05-04 18:14 | 44.21324 | 21.54234 | 38094 ft | 425 kts | 333° |
| 2026-05-04 18:15 | 44.31861 | 21.46698 | 38082 ft | 425 kts | 333° |
| 2026-05-04 18:16 | 44.37116 | 21.42929 | 38092 ft | 424 kts | 333° |
| 2026-05-04 18:16 | 44.42362 | 21.39156 | 38084 ft | 424 kts | 333° |
| 2026-05-04 18:17 | 44.50240 | 21.33474 | 38085 ft | 425 kts | 333° |
| 2026-05-04 18:18 | 44.58131 | 21.27767 | 38088 ft | 426 kts | 333° |
| 2026-05-04 18:18 | 44.63370 | 21.23967 | 38086 ft | 427 kts | 333° |
| 2026-05-04 18:19 | 44.71296 | 21.18204 | 38083 ft | 428 kts | 333° |
| 2026-05-04 18:19 | 44.76601 | 21.14337 | 38085 ft | 429 kts | 333° |
| 2026-05-04 18:20 | 44.81901 | 21.10466 | 38084 ft | 430 kts | 333° |
| 2026-05-04 18:20 | 44.87206 | 21.06582 | 38086 ft | 430 kts | 333° |
| 2026-05-04 18:21 | 44.92509 | 21.02692 | 38085 ft | 430 kts | 333° |
| 2026-05-04 18:21 | 44.97815 | 20.98791 | 38080 ft | 429 kts | 333° |
| 2026-05-04 18:22 | 45.03067 | 20.94923 | 38081 ft | 428 kts | 333° |
| 2026-05-04 18:22 | 45.08342 | 20.91029 | 38074 ft | 427 kts | 333° |
| 2026-05-04 18:23 | 45.13599 | 20.87140 | 38076 ft | 425 kts | 333° |
| 2026-05-04 18:23 | 45.18839 | 20.83256 | 38076 ft | 424 kts | 333° |
| 2026-05-04 18:24 | 45.24056 | 20.79380 | 38074 ft | 423 kts | 333° |
| 2026-05-04 18:24 | 45.29250 | 20.75514 | 38080 ft | 421 kts | 333° |
| 2026-05-04 18:25 | 45.34439 | 20.71643 | 38075 ft | 420 kts | 333° |
| 2026-05-04 18:25 | 45.39606 | 20.67781 | 38074 ft | 420 kts | 333° |
| 2026-05-04 18:26 | 45.44792 | 20.63897 | 38076 ft | 420 kts | 333° |
| 2026-05-04 18:26 | 45.49975 | 20.60007 | 38075 ft | 421 kts | 333° |
| 2026-05-04 18:27 | 45.55122 | 20.56135 | 38080 ft | 421 kts | 333° |
| 2026-05-04 18:27 | 45.60308 | 20.52226 | 38074 ft | 422 kts | 333° |
| 2026-05-04 18:28 | 45.65521 | 20.48288 | 38072 ft | 424 kts | 333° |
| 2026-05-04 18:28 | 45.70736 | 20.44341 | 38069 ft | 425 kts | 333° |
| 2026-05-04 18:29 | 45.75968 | 20.40372 | 38073 ft | 426 kts | 333° |
| 2026-05-04 18:29 | 45.81212 | 20.36386 | 38070 ft | 427 kts | 333° |
| 2026-05-04 18:30 | 45.89055 | 20.30407 | 38066 ft | 428 kts | 332° |
| 2026-05-04 18:31 | 45.94313 | 20.26388 | 38068 ft | 428 kts | 332° |
| 2026-05-04 18:31 | 45.99686 | 20.22754 | 38067 ft | 427 kts | 343° |
| 2026-05-04 18:32 | 46.04582 | 20.21495 | 38077 ft | 427 kts | 353° |
| 2026-05-04 18:32 | 46.10461 | 20.20644 | 38064 ft | 427 kts | 354° |
| 2026-05-04 18:33 | 46.16386 | 20.19779 | 38062 ft | 427 kts | 354° |
| 2026-05-04 18:33 | 46.22316 | 20.18871 | 38067 ft | 427 kts | 353° |
| 2026-05-04 18:34 | 46.28231 | 20.17943 | 38067 ft | 427 kts | 353° |
| 2026-05-04 18:34 | 46.34144 | 20.17007 | 38068 ft | 427 kts | 353° |
| 2026-05-04 18:35 | 46.40023 | 20.16074 | 38070 ft | 427 kts | 353° |
| 2026-05-04 18:35 | 46.45940 | 20.15134 | 38063 ft | 427 kts | 353° |
| 2026-05-04 18:36 | 46.51850 | 20.14194 | 38059 ft | 428 kts | 353° |
| 2026-05-04 18:36 | 46.57768 | 20.13250 | 38063 ft | 428 kts | 353° |
| 2026-05-04 18:37 | 46.63695 | 20.12302 | 38063 ft | 428 kts | 353° |
| 2026-05-04 18:37 | 46.69612 | 20.11354 | 38058 ft | 428 kts | 353° |
| 2026-05-04 18:38 | 46.75540 | 20.10402 | 38056 ft | 428 kts | 353° |
| 2026-05-04 18:38 | 46.81474 | 20.09447 | 38056 ft | 429 kts | 353° |
| 2026-05-04 18:39 | 46.87370 | 20.08496 | 38052 ft | 429 kts | 353° |
| 2026-05-04 18:39 | 46.93324 | 20.07534 | 38047 ft | 429 kts | 353° |
| 2026-05-04 18:40 | 46.99221 | 20.06579 | 38053 ft | 429 kts | 353° |
| 2026-05-04 18:40 | 47.05153 | 20.05615 | 38052 ft | 430 kts | 353° |
| 2026-05-04 18:41 | 47.11072 | 20.04653 | 38048 ft | 430 kts | 353° |
| 2026-05-04 18:41 | 47.17042 | 20.03679 | 38046 ft | 430 kts | 353° |
| 2026-05-04 18:42 | 47.23012 | 20.02703 | 38052 ft | 430 kts | 353° |
| 2026-05-04 18:42 | 47.28952 | 20.01730 | 38048 ft | 430 kts | 353° |
| 2026-05-04 18:43 | 47.34906 | 20.00752 | 38047 ft | 430 kts | 353° |
| 2026-05-04 18:43 | 47.40850 | 19.99774 | 38054 ft | 430 kts | 353° |
| 2026-05-04 18:44 | 47.46763 | 19.98799 | 38055 ft | 430 kts | 353° |
| 2026-05-04 18:44 | 47.52706 | 19.97816 | 38053 ft | 430 kts | 353° |
| 2026-05-04 18:45 | 47.58658 | 19.96830 | 38055 ft | 430 kts | 353° |
| 2026-05-04 18:45 | 47.64607 | 19.95842 | 38056 ft | 430 kts | 353° |
| 2026-05-04 18:46 | 47.70515 | 19.94858 | 38055 ft | 430 kts | 353° |
| 2026-05-04 18:46 | 47.76460 | 19.93867 | 38064 ft | 429 kts | 353° |
| 2026-05-04 18:47 | 47.82405 | 19.92872 | 38062 ft | 429 kts | 353° |
| 2026-05-04 18:47 | 47.88363 | 19.91873 | 37784 ft | 434 kts | 353° |
| 2026-05-04 18:47 | 47.91366 | 19.91369 | 37516 ft | 434 kts | 353° |
| 2026-05-04 18:48 | 47.94368 | 19.90865 | 37248 ft | 431 kts | 353° |
| 2026-05-04 18:48 | 47.97339 | 19.90365 | 36976 ft | 430 kts | 353° |
| 2026-05-04 18:48 | 48.00309 | 19.89865 | 36715 ft | 430 kts | 353° |
| 2026-05-04 18:48 | 48.03288 | 19.89362 | 36453 ft | 430 kts | 353° |
| 2026-05-04 18:49 | 48.06260 | 19.88860 | 36196 ft | 430 kts | 353° |
| 2026-05-04 18:49 | 48.09191 | 19.88364 | 35948 ft | 430 kts | 353° |
| 2026-05-04 18:49 | 48.12169 | 19.87860 | 35700 ft | 430 kts | 353° |
| 2026-05-04 18:49 | 48.15142 | 19.87357 | 35443 ft | 430 kts | 353° |
| 2026-05-04 18:50 | 48.18113 | 19.86853 | 35196 ft | 429 kts | 353° |
| 2026-05-04 18:50 | 48.21088 | 19.86347 | 34948 ft | 429 kts | 353° |
| 2026-05-04 18:50 | 48.24049 | 19.85844 | 34707 ft | 428 kts | 353° |
| 2026-05-04 18:50 | 48.26999 | 19.85342 | 34460 ft | 426 kts | 352° |
| 2026-05-04 18:51 | 48.29936 | 19.84841 | 34223 ft | 424 kts | 352° |
| 2026-05-04 18:51 | 48.32864 | 19.84342 | 34087 ft | 418 kts | 352° |
| 2026-05-04 18:51 | 48.35744 | 19.83850 | 34058 ft | 416 kts | 352° |
| 2026-05-04 18:52 | 48.41504 | 19.82864 | 34070 ft | 418 kts | 352° |
| 2026-05-04 18:52 | 48.47310 | 19.81867 | 34061 ft | 421 kts | 352° |
| 2026-05-04 18:53 | 48.53142 | 19.80864 | 34064 ft | 422 kts | 352° |
| 2026-05-04 18:53 | 48.58946 | 19.79864 | 33743 ft | 422 kts | 352° |
| 2026-05-04 18:53 | 48.61888 | 19.79357 | 33478 ft | 418 kts | 352° |
| 2026-05-04 18:54 | 48.64722 | 19.78868 | 33200 ft | 412 kts | 352° |
| 2026-05-04 18:54 | 48.67559 | 19.78377 | 32940 ft | 409 kts | 352° |
| 2026-05-04 18:54 | 48.70388 | 19.77887 | 32672 ft | 407 kts | 352° |
| 2026-05-04 18:54 | 48.73197 | 19.77400 | 32415 ft | 406 kts | 352° |
| 2026-05-04 18:55 | 48.75995 | 19.76914 | 32156 ft | 404 kts | 352° |
| 2026-05-04 18:55 | 48.81560 | 19.75946 | 31627 ft | 396 kts | 352° |
| 2026-05-04 18:55 | 48.84296 | 19.75470 | 31375 ft | 396 kts | 352° |
| 2026-05-04 18:56 | 48.87047 | 19.74989 | 30986 ft | 400 kts | 352° |
| 2026-05-04 18:56 | 48.89823 | 19.74504 | 30526 ft | 401 kts | 352° |
| 2026-05-04 18:56 | 48.92584 | 19.74021 | 30031 ft | 399 kts | 352° |
| 2026-05-04 18:56 | 48.95349 | 19.73538 | 29466 ft | 398 kts | 352° |
| 2026-05-04 18:57 | 48.98066 | 19.73062 | 28926 ft | 398 kts | 352° |
| 2026-05-04 18:57 | 49.00813 | 19.72580 | 28384 ft | 396 kts | 352° |
| 2026-05-04 18:57 | 49.03549 | 19.72100 | 27905 ft | 394 kts | 352° |
| 2026-05-04 18:57 | 49.06265 | 19.71623 | 27423 ft | 392 kts | 352° |
| 2026-05-04 18:58 | 49.08968 | 19.71148 | 26964 ft | 390 kts | 352° |
| 2026-05-04 18:58 | 49.11659 | 19.70674 | 26499 ft | 388 kts | 352° |
| 2026-05-04 18:58 | 49.14323 | 19.70204 | 26040 ft | 386 kts | 352° |
| 2026-05-04 18:58 | 49.16990 | 19.69733 | 25729 ft | 381 kts | 352° |
| 2026-05-04 18:59 | 49.19591 | 19.69274 | 25494 ft | 373 kts | 352° |
| 2026-05-04 18:59 | 49.22154 | 19.68822 | 25225 ft | 367 kts | 352° |
| 2026-05-04 18:59 | 49.24648 | 19.68380 | 24990 ft | 362 kts | 352° |
| 2026-05-04 18:59 | 49.27136 | 19.67939 | 24749 ft | 358 kts | 352° |
| 2026-05-04 19:00 | 49.29606 | 19.67500 | 24506 ft | 359 kts | 352° |
| 2026-05-04 19:00 | 49.32108 | 19.67054 | 24288 ft | 364 kts | 352° |
| 2026-05-04 19:00 | 49.34635 | 19.66603 | 24009 ft | 368 kts | 352° |
| 2026-05-04 19:00 | 49.37181 | 19.66150 | 23625 ft | 368 kts | 352° |
| 2026-05-04 19:01 | 49.39717 | 19.65699 | 23198 ft | 367 kts | 352° |
| 2026-05-04 19:01 | 49.42253 | 19.65258 | 22753 ft | 366 kts | 354° |
| 2026-05-04 19:01 | 49.44781 | 19.65619 | 22295 ft | 369 kts | 16° |
| 2026-05-04 19:01 | 49.47082 | 19.67329 | 21884 ft | 369 kts | 36° |
| 2026-05-04 19:02 | 49.48970 | 19.69972 | 21502 ft | 366 kts | 40° |
| 2026-05-04 19:02 | 49.51124 | 19.71889 | 20967 ft | 355 kts | 13° |
| 2026-05-04 19:02 | 49.53536 | 19.72184 | 20381 ft | 346 kts | 351° |
| 2026-05-04 19:02 | 49.55886 | 19.71506 | 19768 ft | 343 kts | 345° |
| 2026-05-04 19:03 | 49.58208 | 19.70663 | 19147 ft | 342 kts | 344° |
| 2026-05-04 19:03 | 49.60514 | 19.69797 | 18563 ft | 340 kts | 343° |
| 2026-05-04 19:03 | 49.62807 | 19.68940 | 17967 ft | 338 kts | 343° |
| 2026-05-04 19:03 | 49.65080 | 19.68100 | 17379 ft | 335 kts | 343° |
| 2026-05-04 19:04 | 49.67342 | 19.67274 | 16759 ft | 333 kts | 344° |
| 2026-05-04 19:04 | 49.69595 | 19.66459 | 16176 ft | 331 kts | 344° |
| 2026-05-04 19:04 | 49.71078 | 19.65924 | 15790 ft | 329 kts | 344° |
| 2026-05-04 19:04 | 49.74057 | 19.64855 | 15022 ft | 327 kts | 344° |
| 2026-05-04 19:05 | 49.76270 | 19.64062 | 14492 ft | 325 kts | 344° |
| 2026-05-04 19:05 | 49.78467 | 19.63276 | 13954 ft | 323 kts | 343° |
| 2026-05-04 19:05 | 49.80653 | 19.62493 | 13473 ft | 319 kts | 343° |
| 2026-05-04 19:05 | 49.82791 | 19.61729 | 13079 ft | 312 kts | 343° |
| 2026-05-04 19:06 | 49.84864 | 19.60987 | 12743 ft | 308 kts | 343° |
| 2026-05-04 19:06 | 49.86947 | 19.60239 | 12405 ft | 307 kts | 343° |
| 2026-05-04 19:06 | 49.89050 | 19.59482 | 12084 ft | 314 kts | 344° |
| 2026-05-04 19:06 | 49.91180 | 19.58714 | 11737 ft | 312 kts | 344° |
| 2026-05-04 19:07 | 49.93271 | 19.57964 | 11390 ft | 304 kts | 344° |
| 2026-05-04 19:07 | 49.95319 | 19.57228 | 11061 ft | 301 kts | 344° |
| 2026-05-04 19:07 | 49.97354 | 19.56495 | 10748 ft | 299 kts | 344° |
| 2026-05-04 19:07 | 49.99399 | 19.55756 | 10447 ft | 305 kts | 344° |
| 2026-05-04 19:08 | 50.01466 | 19.55009 | 10265 ft | 302 kts | 344° |
| 2026-05-04 19:08 | 50.03469 | 19.54288 | 10099 ft | 289 kts | 344° |
| 2026-05-04 19:08 | 50.05391 | 19.53596 | 9908 ft | 281 kts | 344° |
| 2026-05-04 19:08 | 50.07314 | 19.52899 | 9621 ft | 285 kts | 344° |
| 2026-05-04 19:09 | 50.09240 | 19.52200 | 9330 ft | 284 kts | 344° |
| 2026-05-04 19:09 | 50.11147 | 19.51509 | 9018 ft | 279 kts | 344° |
| 2026-05-04 19:09 | 50.13040 | 19.50823 | 8734 ft | 278 kts | 344° |
| 2026-05-04 19:09 | 50.14919 | 19.50141 | 8453 ft | 277 kts | 344° |
| 2026-05-04 19:10 | 50.16777 | 19.49465 | 8166 ft | 277 kts | 344° |
| 2026-05-04 19:10 | 50.18647 | 19.48785 | 7885 ft | 276 kts | 344° |
| 2026-05-04 19:10 | 50.20514 | 19.48105 | 7592 ft | 275 kts | 344° |
| 2026-05-04 19:10 | 50.22382 | 19.47425 | 7313 ft | 274 kts | 343° |
| 2026-05-04 19:11 | 50.24243 | 19.46747 | 7019 ft | 273 kts | 344° |
| 2026-05-04 19:11 | 50.26066 | 19.46083 | 6723 ft | 266 kts | 343° |
| 2026-05-04 19:11 | 50.27827 | 19.45441 | 6452 ft | 264 kts | 343° |
| 2026-05-04 19:11 | 50.29664 | 19.44768 | 6171 ft | 271 kts | 343° |
| 2026-05-04 19:12 | 50.31501 | 19.44095 | 5881 ft | 271 kts | 343° |
| 2026-05-04 19:12 | 50.35127 | 19.42769 | 5338 ft | 268 kts | 343° |
| 2026-05-04 19:12 | 50.36940 | 19.42105 | 5112 ft | 265 kts | 343° |
| 2026-05-04 19:13 | 50.38693 | 19.41465 | 4991 ft | 253 kts | 343° |
| 2026-05-04 19:13 | 50.40395 | 19.40841 | 4894 ft | 250 kts | 342° |
| 2026-05-04 19:13 | 50.42078 | 19.40222 | 4796 ft | 246 kts | 342° |
| 2026-05-04 19:13 | 50.43724 | 19.39618 | 4677 ft | 238 kts | 342° |
| 2026-05-04 19:14 | 50.45310 | 19.39037 | 4536 ft | 228 kts | 342° |
| 2026-05-04 19:14 | 50.46711 | 19.38095 | 4274 ft | 212 kts | 312° |
| 2026-05-04 19:14 | 50.47336 | 19.36224 | 4195 ft | 192 kts | 274° |
| 2026-05-04 19:14 | 50.47478 | 19.34157 | 3949 ft | 186 kts | 272° |
| 2026-05-04 19:15 | 50.47561 | 19.32221 | 3720 ft | 172 kts | 268° |
| 2026-05-04 19:15 | 50.47579 | 19.30416 | 3516 ft | 159 kts | 266° |
| 2026-05-04 19:15 | 50.47582 | 19.28746 | 3307 ft | 148 kts | 266° |
| 2026-05-04 19:15 | 50.47582 | 19.27190 | 3161 ft | 138 kts | 266° |
| 2026-05-04 19:16 | 50.47582 | 19.25688 | 2964 ft | 137 kts | 266° |
| 2026-05-04 19:16 | 50.47581 | 19.24179 | 2777 ft | 140 kts | 266° |
| 2026-05-04 19:16 | 50.47582 | 19.22652 | 2593 ft | 139 kts | 266° |
| 2026-05-04 19:16 | 50.47583 | 19.21130 | 2409 ft | 139 kts | 266° |
| 2026-05-04 19:17 | 50.47583 | 19.20125 | 2285 ft | 139 kts | 266° |
| 2026-05-04 19:17 | 50.47585 | 19.18608 | 2107 ft | 139 kts | 266° |
| 2026-05-04 19:17 | 50.47586 | 19.17089 | 1925 ft | 140 kts | 267° |
| 2026-05-04 19:17 | 50.47588 | 19.15541 | 1738 ft | 142 kts | 267° |
| 2026-05-04 19:18 | 50.47590 | 19.13974 | 1536 ft | 146 kts | 269° |
| 2026-05-04 19:18 | 50.47593 | 19.12373 | 1373 ft | 145 kts | 268° |
| 2026-05-04 19:18 | 50.47599 | 19.10775 | 1137 ft | 146 kts | 268° |
| 2026-05-04 19:18 | 50.47597 | 19.09211 | 1006 ft | 136 kts | 268° |
| 2026-05-04 19:19 | 50.47601 | 19.07917 | 994 ft | 97 kts | 270° |
| 2026-05-04 19:19 | 50.47582 | 19.07150 | 990 ft | 44 kts | 252° |
| 2026-05-04 19:19 | 50.47514 | 19.06920 | 986 ft | 8 kts | 240° |
| 2026-05-04 19:19 | 50.47485 | 19.06841 | 988 ft | 8 kts | 240° |
| 2026-05-04 19:20 | 50.47457 | 19.06764 | 988 ft | 8 kts | 240° |
| 2026-05-04 19:20 | 50.47423 | 19.06674 | 988 ft | 11 kts | 238° |
| 2026-05-04 19:20 | 50.47347 | 19.06625 | 987 ft | 15 kts | 181° |
| 2026-05-04 19:20 | 50.47246 | 19.06660 | 984 ft | 16 kts | 124° |
| 2026-05-04 19:21 | 50.47236 | 19.06829 | 991 ft | 15 kts | 90° |
| 2026-05-04 19:21 | 50.47235 | 19.07001 | 992 ft | 17 kts | 90° |
| 2026-05-04 19:21 | 50.47235 | 19.07196 | 988 ft | 19 kts | 90° |
| 2026-05-04 19:21 | 50.47234 | 19.07418 | 993 ft | 21 kts | 90° |
| 2026-05-04 19:22 | 50.47234 | 19.07636 | 994 ft | 18 kts | 90° |
| 2026-05-04 19:22 | 50.47234 | 19.07749 | 995 ft | 5 kts | 90° |
| 2026-05-04 19:22 | 50.47230 | 19.07766 | 999 ft | 0 kts | 118° |
| 2026-05-04 19:22 | 50.47209 | 19.07768 | 999 ft | 7 kts | 189° |
| 2026-05-04 19:23 | 50.47165 | 19.07757 | 998 ft | 6 kts | 178° |
| 2026-05-04 19:23 | 50.47147 | 19.07758 | 998 ft | 0 kts | 179° |